This is the latest recevied weather packets stored in our database for station/object DB0OHA-13. If no packets are shown the sender has not sent any weather packets the latest 10 day(s).
| Time | Temp. | Humidity | Pressure | Rain* | Wind** | Luminosity | Snow |
|---|---|---|---|---|---|---|---|
| 1777617672 | 12.22° C | 61% | 1029.3 hPa | 0 mm | - | 239 W/m² | - |
| 1777617072 | 11.67° C | 62% | 1029.3 hPa | 0 mm | - | 266 W/m² | - |
| 1777615872 | 10.56° C | 63% | 1029.3 hPa | 0 mm | - | 208 W/m² | - |
| 1777615272 | 10° C | 63% | 1029.3 hPa | 0 mm | - | 188 W/m² | - |
| 1777614672 | 9.44° C | 63% | 1029.2 hPa | 0 mm | - | 52 W/m² | - |
| 1777613471 | 8.33° C | 62% | 1029 hPa | 0 mm | - | 26 W/m² | - |
| 1777612871 | 7.78° C | 62% | 1028.9 hPa | 0 mm | - | 25 W/m² | - |
| 1777612271 | 7.78° C | 62% | 1028.8 hPa | 0 mm | - | 23 W/m² | - |
| 1777611671 | 7.22° C | 62% | 1028.8 hPa | 0 mm | - | 21 W/m² | - |
| 1777611071 | 7.22° C | 62% | 1028.8 hPa | 0 mm | - | 18 W/m² | - |
| 1777610471 | 7.22° C | 61% | 1028.8 hPa | 0 mm | - | 16 W/m² | - |
| 1777609871 | 7.22° C | 61% | 1028.8 hPa | 0 mm | - | 14 W/m² | - |
| 1777609271 | 7.22° C | 61% | 1028.7 hPa | 0 mm | - | 11 W/m² | - |
| 1777608671 | 6.67° C | 60% | 1028.7 hPa | 0 mm | - | 8 W/m² | - |
| 1777608071 | 6.67° C | 59% | 1028.7 hPa | 0 mm | - | 5 W/m² | - |
| 1777606871 | 6.11° C | 56% | 1028.7 hPa | 0 mm | - | 0 W/m² | - |
| 1777606271 | 5.56° C | 56% | 1028.6 hPa | 0 mm | - | 0 W/m² | - |
| 1777605671 | 6.11° C | 60% | 1028.7 hPa | 0 mm | - | 0 W/m² | - |
| 1777605070 | 6.67° C | 64% | 1028.7 hPa | 0 mm | - | 0 W/m² | - |
| 1777604470 | 7.22° C | 64% | 1028.8 hPa | 0 mm | - | 0 W/m² | - |
| 1777602670 | 7.22° C | 65% | 1028.9 hPa | 0 mm | - | 0 W/m² | - |
| 1777602070 | 7.22° C | 66% | 1029 hPa | 0 mm | - | 0 W/m² | - |
| 1777601470 | 7.22° C | 66% | 1029.1 hPa | 0 mm | - | 0 W/m² | - |
| 1777600870 | 7.22° C | 66% | 1029 hPa | 0 mm | - | 0 W/m² | - |
| 1777600270 | 7.22° C | 66% | 1029 hPa | 0 mm | - | 0 W/m² | - |
* Rain latest hour (hover to see other rain measurements)
** Current wind speed in m/s (hover to see current wind gust speed)